createdAt,value
2019-05-09T00:00:16.373Z,7.03
2019-05-09T00:02:49.685Z,6.62
2019-05-09T00:05:28.795Z,8.65
2019-05-09T00:07:59.125Z,10.38
2019-05-09T00:10:41.108Z,10.40
2019-05-09T00:13:03.796Z,6.67
2019-05-09T00:15:35.513Z,8.00
2019-05-09T00:18:05.858Z,7.53
2019-05-09T00:20:43.702Z,6.75
2019-05-09T00:23:16.829Z,8.10
2019-05-09T00:25:47.070Z,6.58
2019-05-09T00:28:17.394Z,7.67
2019-05-09T00:30:55.089Z,6.28
2019-05-09T00:33:30.752Z,5.87
2019-05-09T00:36:04.476Z,8.50
2019-05-09T00:38:43.449Z,8.43
2019-05-09T00:41:14.172Z,8.35
2019-05-09T00:43:47.115Z,7.90
2019-05-09T00:46:20.525Z,4.78
2019-05-09T00:48:55.556Z,5.33
2019-05-09T00:51:25.869Z,8.95
2019-05-09T00:53:56.101Z,6.42
2019-05-09T00:56:26.420Z,4.25
2019-05-09T00:58:56.991Z,5.85
2019-05-09T01:01:27.330Z,6.10
2019-05-09T01:03:57.644Z,6.15
2019-05-09T01:06:27.902Z,5.45
2019-05-09T01:08:58.153Z,7.12
2019-05-09T01:11:28.384Z,6.53
2019-05-09T01:13:58.639Z,8.73
2019-05-09T01:16:29.051Z,6.47
2019-05-09T01:19:03.655Z,6.55
2019-05-09T01:21:35.676Z,5.55
2019-05-09T01:24:05.929Z,6.90
2019-05-09T01:26:36.238Z,9.05
2019-05-09T01:29:13.842Z,7.37
2019-05-09T01:31:45.308Z,6.15
2019-05-09T01:34:17.189Z,6.83
2019-05-09T01:37:10.005Z,7.00
2019-05-09T01:39:40.302Z,9.98
2019-05-09T01:42:10.608Z,7.08
2019-05-09T01:44:40.868Z,8.23
2019-05-09T01:47:11.167Z,7.25
2019-05-09T01:49:43.145Z,6.35
2019-05-09T01:52:13.790Z,7.72
2019-05-09T01:54:48.636Z,6.22
2019-05-09T01:57:18.937Z,7.95
2019-05-09T01:59:49.746Z,7.62
2019-05-09T02:02:20.061Z,6.90
2019-05-09T02:04:50.498Z,7.20
2019-05-09T02:07:20.819Z,7.37
2019-05-09T02:09:51.133Z,7.28
2019-05-09T02:12:21.300Z,7.58
2019-05-09T02:14:54.237Z,6.67
2019-05-09T02:17:54.128Z,7.70
2019-05-09T02:20:13.742Z,9.58
2019-05-09T02:22:44.204Z,5.95
2019-05-09T02:25:15.108Z,8.73
2019-05-09T02:27:45.437Z,9.43
2019-05-09T02:30:17.069Z,7.53
2019-05-09T02:32:47.307Z,7.22
2019-05-09T02:35:17.613Z,7.33
2019-05-09T02:37:49.779Z,6.87
2019-05-09T02:40:19.848Z,6.83
2019-05-09T02:42:50.179Z,7.30
2019-05-09T02:45:20.881Z,7.85
2019-05-09T02:47:52.814Z,6.55
2019-05-09T02:50:23.062Z,8.55
2019-05-09T02:52:53.278Z,9.15
2019-05-09T02:55:23.577Z,8.05
2019-05-09T02:57:55.409Z,7.87
2019-05-09T03:00:42.755Z,8.13
2019-05-09T03:03:19.815Z,8.35
2019-05-09T03:05:49.679Z,9.80
2019-05-09T03:08:19.999Z,7.90
2019-05-09T03:10:50.169Z,11.43
2019-05-09T03:13:20.510Z,11.05
2019-05-09T03:15:52.378Z,8.48
2019-05-09T03:21:11.411Z,10.53
2019-05-09T03:23:41.663Z,10.03
2019-05-09T03:26:19.211Z,8.48
2019-05-09T03:28:49.627Z,9.28
2019-05-09T03:31:21.474Z,11.38
2019-05-09T03:33:51.824Z,11.10
2019-05-09T03:36:22.106Z,8.13
2019-05-09T03:41:43.079Z,8.93
2019-05-09T03:44:13.410Z,9.10
2019-05-09T03:46:58.083Z,9.98
2019-05-09T03:49:28.618Z,9.03
2019-05-09T03:51:59.239Z,9.05
2019-05-09T03:54:29.435Z,7.97
2019-05-09T03:57:07.717Z,8.85
2019-05-09T03:59:38.340Z,7.33
2019-05-09T04:02:10.303Z,8.33
2019-05-09T04:04:40.782Z,8.63
2019-05-09T04:07:11.123Z,8.13
2019-05-09T04:09:41.905Z,8.83
2019-05-09T04:12:12.145Z,10.13
2019-05-09T04:14:44.464Z,8.13
2019-05-09T04:17:14.785Z,8.00
2019-05-09T04:19:47.706Z,8.90
2019-05-09T04:22:18.185Z,6.80
2019-05-09T04:25:00.985Z,7.67
2019-05-09T04:27:51.204Z,9.23
2019-05-09T04:30:23.071Z,7.15
2019-05-09T04:32:53.400Z,7.83
2019-05-09T04:35:25.161Z,7.72
2019-05-09T04:37:55.351Z,12.55
2019-05-09T04:40:31.106Z,7.72
2019-05-09T04:43:10.852Z,9.90
2019-05-09T04:45:38.760Z,6.95
2019-05-09T04:48:13.139Z,6.37
2019-05-09T04:50:48.247Z,6.72
2019-05-09T04:53:18.616Z,8.38
2019-05-09T04:55:48.946Z,7.37
2019-05-09T04:58:19.408Z,9.70
2019-05-09T05:01:09.889Z,12.70
2019-05-09T05:03:41.102Z,8.83
2019-05-09T05:06:11.369Z,10.20
2019-05-09T05:08:47.823Z,8.13
2019-05-09T05:11:17.895Z,10.75
2019-05-09T05:13:48.307Z,7.65
2019-05-09T05:16:18.595Z,6.10
2019-05-09T05:18:50.697Z,5.85
2019-05-09T05:21:21.025Z,7.12
2019-05-09T05:23:52.918Z,8.48
2019-05-09T05:26:23.578Z,7.37
2019-05-09T05:28:55.439Z,7.67
2019-05-09T05:31:28.548Z,8.20
2019-05-09T05:34:00.696Z,8.75
2019-05-09T05:39:14.189Z,6.92
2019-05-09T05:41:45.110Z,9.10
2019-05-09T05:44:18.450Z,7.47
2019-05-09T05:46:50.941Z,9.50
2019-05-09T05:49:21.374Z,7.63
2019-05-09T05:51:51.673Z,7.90
2019-05-09T05:54:22.389Z,5.75
2019-05-09T05:56:52.777Z,8.30
2019-05-09T05:59:23.094Z,7.25
2019-05-09T06:01:53.418Z,6.95
2019-05-09T06:04:23.846Z,7.30
2019-05-09T06:06:54.180Z,12.85
2019-05-09T06:09:24.477Z,8.53
2019-05-09T06:11:59.139Z,7.25
2019-05-09T06:14:29.410Z,8.60
2019-05-09T06:17:08.308Z,8.33
2019-05-09T06:19:38.644Z,8.05
2019-05-09T06:22:12.035Z,8.35
2019-05-09T06:27:11.669Z,7.80
2019-05-09T06:29:44.508Z,10.55
2019-05-09T06:32:18.851Z,8.13
2019-05-09T06:34:49.897Z,7.42
2019-05-09T06:37:20.197Z,8.50
2019-05-09T06:39:50.529Z,7.97
2019-05-09T06:42:21.453Z,8.05
2019-05-09T06:44:59.449Z,11.05
2019-05-09T06:47:31.398Z,20.20
2019-05-09T06:50:12.239Z,13.43
2019-05-09T06:52:42.573Z,11.33
2019-05-09T06:55:13.302Z,10.72
2019-05-09T06:57:43.652Z,9.10
2019-05-09T07:00:21.316Z,11.48
2019-05-09T07:03:00.860Z,7.62
2019-05-09T07:05:49.297Z,7.60
2019-05-09T07:08:21.198Z,9.58
2019-05-09T07:13:40.666Z,8.98
2019-05-09T07:16:10.896Z,9.90
2019-05-09T07:18:41.258Z,10.80
2019-05-09T07:21:11.587Z,8.68
2019-05-09T07:23:41.900Z,8.30
2019-05-09T07:26:17.693Z,10.78
2019-05-09T07:28:49.159Z,9.35
2019-05-09T07:31:30.024Z,10.28
2019-05-09T07:34:05.542Z,8.65
2019-05-09T07:36:38.414Z,10.03
2019-05-09T07:39:10.094Z,8.00
2019-05-09T07:41:41.365Z,8.50
2019-05-09T07:44:11.685Z,7.90
2019-05-09T07:46:47.897Z,6.42
2019-05-09T07:49:18.276Z,7.17
2019-05-09T07:51:48.568Z,9.93
2019-05-09T07:54:25.031Z,7.62
2019-05-09T07:56:52.407Z,11.08
2019-05-09T07:59:31.039Z,7.50
2019-05-09T08:02:01.353Z,9.43
2019-05-09T08:04:33.333Z,9.83
2019-05-09T08:07:05.134Z,6.22
2019-05-09T08:09:38.727Z,11.63
2019-05-09T08:12:09.714Z,6.28
2019-05-09T08:14:40.045Z,7.87
2019-05-09T08:17:10.384Z,8.55
2019-05-09T08:19:40.717Z,11.12
2019-05-09T08:22:12.129Z,6.03
2019-05-09T08:24:42.400Z,7.12
2019-05-09T08:27:12.700Z,8.68
2019-05-09T08:29:43.029Z,7.92
2019-05-09T08:32:13.268Z,8.58
2019-05-09T08:34:48.272Z,9.53
2019-05-09T08:37:19.749Z,8.75
2019-05-09T08:39:50.031Z,6.85
2019-05-09T08:42:20.343Z,8.95
2019-05-09T08:44:50.600Z,10.98
2019-05-09T08:47:20.915Z,34.13
2019-05-09T08:49:52.864Z,13.32
2019-05-09T08:52:23.125Z,8.40
2019-05-09T08:55:05.110Z,10.98
2019-05-09T08:57:37.397Z,14.73
2019-05-09T09:00:08.809Z,10.78
2019-05-09T09:02:40.351Z,8.90
2019-05-09T09:05:14.104Z,11.28
2019-05-09T09:07:44.410Z,11.78
2019-05-09T09:10:14.653Z,10.23
2019-05-09T09:12:47.799Z,8.90
2019-05-09T09:15:18.195Z,12.33
2019-05-09T09:17:49.158Z,9.50
2019-05-09T09:20:19.634Z,10.78
2019-05-09T09:22:49.771Z,12.20
2019-05-09T09:25:19.828Z,10.35
2019-05-09T09:27:51.152Z,9.70
2019-05-09T09:30:25.162Z,9.00
2019-05-09T09:32:54.680Z,10.72
2019-05-09T09:35:27.117Z,8.23
2019-05-09T09:37:58.088Z,11.28
2019-05-09T09:40:28.417Z,9.68
2019-05-09T09:42:58.516Z,7.60
2019-05-09T09:45:28.672Z,18.75
2019-05-09T09:47:59.374Z,8.15
2019-05-09T09:50:29.636Z,10.60
2019-05-09T09:53:03.724Z,9.80
2019-05-09T09:55:33.773Z,9.85
2019-05-09T09:58:04.770Z,8.13
2019-05-09T10:00:42.342Z,8.55
2019-05-09T10:03:12.940Z,10.15
2019-05-09T10:05:43.030Z,8.15
2019-05-09T10:08:14.131Z,9.80
2019-05-09T10:10:44.334Z,7.60
2019-05-09T10:13:18.285Z,10.75
2019-05-09T10:15:50.598Z,6.37
2019-05-09T10:18:27.670Z,6.55
2019-05-09T10:21:10.978Z,7.03
2019-05-09T10:23:40.976Z,9.40
2019-05-09T10:26:10.968Z,6.47
2019-05-09T10:28:45.098Z,9.15
2019-05-09T10:31:12.655Z,5.33
2019-05-09T10:33:42.646Z,4.42
2019-05-09T10:36:15.956Z,5.55
2019-05-09T10:38:47.833Z,3.83
2019-05-09T10:41:19.168Z,5.92
2019-05-09T10:43:51.151Z,5.03
2019-05-09T10:46:49.449Z,5.85
2019-05-09T10:49:08.545Z,5.00
2019-05-09T10:51:38.774Z,6.15
2019-05-09T10:54:11.478Z,4.62
2019-05-09T10:56:41.542Z,5.00
2019-05-09T10:59:12.339Z,3.83
2019-05-09T11:01:49.815Z,3.45
2019-05-09T11:04:20.047Z,4.17
2019-05-09T11:06:58.340Z,6.37
2019-05-09T11:09:29.221Z,3.42
2019-05-09T11:12:01.266Z,3.33
2019-05-09T11:14:37.739Z,4.67
2019-05-09T11:20:01.011Z,7.25
2019-05-09T11:22:31.177Z,4.55
2019-05-09T11:25:01.494Z,7.53
2019-05-09T11:27:33.291Z,5.58
2019-05-09T11:30:05.005Z,4.25
2019-05-09T11:32:35.141Z,2.85
2019-05-09T11:35:09.053Z,3.60
2019-05-09T11:37:39.142Z,3.25
2019-05-09T11:40:11.871Z,3.75
2019-05-09T11:42:41.940Z,5.87
2019-05-09T11:45:13.185Z,5.70
2019-05-09T11:47:46.456Z,3.95
2019-05-09T11:50:18.789Z,3.37
2019-05-09T11:52:49.121Z,4.72
2019-05-09T11:55:29.698Z,4.62
2019-05-09T11:57:52.787Z,3.72
2019-05-09T12:00:41.161Z,4.67
2019-05-09T12:03:11.401Z,3.92
2019-05-09T12:05:42.930Z,6.33
2019-05-09T12:08:13.126Z,3.87
2019-05-09T12:10:43.191Z,6.70
2019-05-09T12:13:13.246Z,8.85
2019-05-09T12:15:43.377Z,4.83
2019-05-09T12:18:13.565Z,6.70
2019-05-09T12:20:43.820Z,6.30
2019-05-09T12:23:19.963Z,5.60
2019-05-09T12:25:48.838Z,8.35
2019-05-09T12:28:19.073Z,5.15
2019-05-09T12:30:49.378Z,5.30
2019-05-09T12:33:19.375Z,7.17
2019-05-09T12:35:49.487Z,5.62
2019-05-09T12:38:19.644Z,5.95
2019-05-09T12:40:49.803Z,6.03
2019-05-09T12:43:21.787Z,4.47
2019-05-09T12:45:52.060Z,5.30
2019-05-09T12:48:22.270Z,9.05
2019-05-09T12:50:52.402Z,4.40
2019-05-09T12:53:22.525Z,4.15
2019-05-09T12:55:54.297Z,3.60
2019-05-09T12:58:27.646Z,5.47
2019-05-09T13:00:59.745Z,5.17
2019-05-09T13:03:30.077Z,4.60
2019-05-09T13:06:00.209Z,4.50
2019-05-09T13:08:30.604Z,4.30
2019-05-09T13:11:02.533Z,4.62
2019-05-09T13:13:32.437Z,5.95
2019-05-09T13:16:04.282Z,5.28
2019-05-09T13:18:52.798Z,7.47
2019-05-09T13:21:22.914Z,3.87
2019-05-09T13:23:53.072Z,3.70
2019-05-09T13:26:23.134Z,4.33
2019-05-09T13:28:58.619Z,3.87
2019-05-09T13:31:29.561Z,4.95
2019-05-09T13:34:01.037Z,4.90
2019-05-09T13:36:31.024Z,4.53
2019-05-09T13:39:05.028Z,4.97
2019-05-09T13:41:33.009Z,3.47
2019-05-09T13:44:05.533Z,3.75
2019-05-09T13:46:35.708Z,6.53
2019-05-09T13:49:12.561Z,4.12
2019-05-09T13:51:49.746Z,4.35
2019-05-09T13:54:10.602Z,3.92
2019-05-09T13:56:40.838Z,3.77
2019-05-09T13:59:12.905Z,6.10
2019-05-09T14:01:43.036Z,5.25
2019-05-09T14:04:13.078Z,4.87
2019-05-09T14:06:48.721Z,3.87
2019-05-09T14:09:20.050Z,5.78
2019-05-09T14:11:51.368Z,5.13
2019-05-09T14:14:21.501Z,5.87
2019-05-09T14:16:51.965Z,4.30
2019-05-09T14:19:31.623Z,4.35
2019-05-09T14:21:53.766Z,4.45
2019-05-09T14:24:24.982Z,4.28
2019-05-09T14:26:58.053Z,4.90
2019-05-09T14:29:31.617Z,4.08
2019-05-09T14:31:58.947Z,4.50
2019-05-09T14:34:30.157Z,6.17
2019-05-09T14:37:00.685Z,4.67
2019-05-09T14:39:33.618Z,4.70
2019-05-09T14:42:05.463Z,4.42
2019-05-09T14:44:37.698Z,4.95
2019-05-09T14:47:08.780Z,4.85
2019-05-09T14:49:43.513Z,4.30
2019-05-09T14:52:11.174Z,4.80
2019-05-09T14:54:41.347Z,7.35
2019-05-09T14:57:11.399Z,5.78
2019-05-09T14:59:41.603Z,5.70
2019-05-09T15:02:11.658Z,4.95
2019-05-09T15:04:41.795Z,3.62
2019-05-09T15:07:11.841Z,7.25
2019-05-09T15:09:41.906Z,4.80
2019-05-09T15:12:13.802Z,6.12
2019-05-09T15:14:47.870Z,4.53
2019-05-09T15:17:18.461Z,7.70
2019-05-09T15:19:59.994Z,5.55
2019-05-09T15:22:22.174Z,7.75
2019-05-09T15:24:52.700Z,6.42
2019-05-09T15:27:22.769Z,6.85
2019-05-09T15:29:52.801Z,6.50
2019-05-09T15:32:22.817Z,7.70
2019-05-09T15:34:52.974Z,8.13
2019-05-09T15:37:23.550Z,6.35
2019-05-09T15:39:53.666Z,7.22
2019-05-09T15:42:24.131Z,7.55
2019-05-09T15:44:54.185Z,6.53
2019-05-09T15:47:30.875Z,6.95
2019-05-09T15:50:15.717Z,7.35
2019-05-09T15:52:32.749Z,7.97
2019-05-09T15:55:04.677Z,8.00
2019-05-09T15:57:34.908Z,8.00
2019-05-09T16:00:08.968Z,8.55
2019-05-09T16:02:39.357Z,9.23
2019-05-09T16:05:10.762Z,8.28
2019-05-09T16:07:43.239Z,9.43
2019-05-09T16:10:13.509Z,11.25
2019-05-09T16:12:43.616Z,9.63
2019-05-09T16:15:15.288Z,9.10
2019-05-09T16:17:48.145Z,9.70
2019-05-09T16:20:28.163Z,9.88
2019-05-09T16:22:50.285Z,10.78
2019-05-09T16:25:20.530Z,10.15
2019-05-09T16:27:50.699Z,10.50
2019-05-09T16:30:27.483Z,11.05
2019-05-09T16:32:58.579Z,9.43
2019-05-09T16:35:28.783Z,11.05
2019-05-09T16:38:06.507Z,9.85
2019-05-09T16:40:32.482Z,11.08
2019-05-09T16:43:04.803Z,10.13
2019-05-09T16:45:34.938Z,14.07
2019-05-09T16:48:10.934Z,12.53
2019-05-09T16:50:41.884Z,10.30
2019-05-09T16:53:09.868Z,9.33
2019-05-09T16:55:40.838Z,10.15
2019-05-09T16:58:11.031Z,9.28
2019-05-09T17:01:00.714Z,10.88
2019-05-09T17:03:32.504Z,13.65
2019-05-09T17:06:20.137Z,12.60
2019-05-09T17:08:50.663Z,10.43
2019-05-09T17:11:21.009Z,10.03
2019-05-09T17:13:51.318Z,10.00
2019-05-09T17:16:21.583Z,11.20
2019-05-09T17:18:54.588Z,11.57
2019-05-09T17:21:37.490Z,10.93
2019-05-09T17:24:09.239Z,20.48
2019-05-09T17:26:39.507Z,13.43
2019-05-09T17:29:10.221Z,12.25
2019-05-09T17:31:42.391Z,13.60
2019-05-09T17:34:13.762Z,15.43
2019-05-09T17:36:44.475Z,12.68
2019-05-09T17:39:14.818Z,12.75
2019-05-09T17:41:45.056Z,13.60
2019-05-09T17:44:15.395Z,14.73
2019-05-09T17:46:47.837Z,15.10
2019-05-09T17:49:17.707Z,18.52
2019-05-09T17:51:49.677Z,14.85
2019-05-09T17:54:20.009Z,14.50
2019-05-09T17:56:50.329Z,13.95
2019-05-09T17:59:20.590Z,14.60
2019-05-09T18:01:50.839Z,15.03
2019-05-09T18:04:22.750Z,15.78
2019-05-09T18:06:58.396Z,15.15
2019-05-09T18:09:29.245Z,17.00
2019-05-09T18:11:59.586Z,19.60
2019-05-09T18:14:29.944Z,21.87
2019-05-09T18:17:13.875Z,18.87
2019-05-09T18:19:45.599Z,19.50
2019-05-09T18:22:18.907Z,17.87
2019-05-09T18:27:18.568Z,18.25
2019-05-09T18:29:52.158Z,32.98
2019-05-09T18:43:34.491Z,19.42
2019-05-09T18:46:04.792Z,21.65
2019-05-09T18:48:37.697Z,22.90
2019-05-09T18:51:08.180Z,31.82
2019-05-09T18:53:38.594Z,22.67
2019-05-09T18:56:10.065Z,22.17
2019-05-09T18:58:40.405Z,22.17
2019-05-09T19:01:10.667Z,20.72
2019-05-09T19:03:41.997Z,24.92
2019-05-09T19:06:12.708Z,25.05
2019-05-09T19:08:42.991Z,23.47
2019-05-09T19:11:13.249Z,21.60
2019-05-09T19:13:44.590Z,20.60
2019-05-09T19:16:16.471Z,58.08
2019-05-09T19:18:49.731Z,30.43
2019-05-09T19:21:21.605Z,22.17
2019-05-09T19:23:53.359Z,22.50
2019-05-09T19:26:39.084Z,23.05
2019-05-09T19:29:09.906Z,27.25
2019-05-09T19:31:44.018Z,23.80
2019-05-09T19:34:17.596Z,23.05
2019-05-09T19:36:54.381Z,24.98
2019-05-09T19:39:24.739Z,23.40
2019-05-09T19:41:55.288Z,20.68
2019-05-09T19:44:26.710Z,24.52
2019-05-09T19:46:57.093Z,26.15
2019-05-09T19:49:27.424Z,21.02
2019-05-09T19:51:57.771Z,20.65
2019-05-09T19:54:27.942Z,18.98
2019-05-09T19:56:58.223Z,19.50
2019-05-09T19:59:28.565Z,21.55
2019-05-09T20:02:00.564Z,17.52
2019-05-09T20:04:30.908Z,29.45
2019-05-09T20:07:01.245Z,19.45
2019-05-09T20:10:07.705Z,18.80
2019-05-09T20:12:56.012Z,17.95
2019-05-09T20:15:29.087Z,19.60
2019-05-09T20:18:00.898Z,17.23
2019-05-09T20:20:32.817Z,21.23
2019-05-09T20:23:04.600Z,18.90
2019-05-09T20:25:35.010Z,20.55
2019-05-09T20:28:10.061Z,18.23
2019-05-09T20:30:40.377Z,18.17
2019-05-09T20:33:10.702Z,24.27
2019-05-09T20:35:46.757Z,26.35
2019-05-09T20:38:18.647Z,19.00
2019-05-09T20:40:49.529Z,16.65
2019-05-09T20:43:21.457Z,19.73
2019-05-09T20:48:22.967Z,21.70
2019-05-09T20:50:53.429Z,21.73
2019-05-09T20:53:25.572Z,20.62
2019-05-09T20:55:56.075Z,19.30
2019-05-09T20:58:26.579Z,20.57
2019-05-09T21:00:58.980Z,24.40
2019-05-09T21:03:31.721Z,21.05
2019-05-09T21:06:04.454Z,20.27
2019-05-09T21:08:36.346Z,22.45
2019-05-09T21:11:09.643Z,20.30
2019-05-09T21:13:48.548Z,18.20
2019-05-09T21:16:25.961Z,26.20
2019-05-09T21:18:56.052Z,22.77
2019-05-09T21:21:29.047Z,21.75
2019-05-09T21:23:59.508Z,22.90
2019-05-09T21:26:31.498Z,22.32
2019-05-09T21:31:35.189Z,22.02
2019-05-09T21:34:05.724Z,21.17
2019-05-09T21:36:36.082Z,22.22
2019-05-09T21:39:07.511Z,19.52
2019-05-09T21:41:40.813Z,22.75
2019-05-09T21:44:13.993Z,22.95
2019-05-09T21:46:45.304Z,21.37
2019-05-09T21:49:18.620Z,26.23
2019-05-09T21:51:50.156Z,25.82
2019-05-09T21:54:21.637Z,21.65
2019-05-09T21:56:53.542Z,25.85
2019-05-09T21:59:27.249Z,22.02
2019-05-09T22:02:05.938Z,21.25
2019-05-09T22:04:39.360Z,21.90
2019-05-09T22:07:11.164Z,22.25
2019-05-09T22:09:41.390Z,23.20
2019-05-09T22:12:15.057Z,23.40
2019-05-09T22:17:22.190Z,25.37
2019-05-09T22:19:55.166Z,21.87
2019-05-09T22:22:27.756Z,24.75
2019-05-09T22:24:59.613Z,21.95
2019-05-09T22:27:31.578Z,23.20
2019-05-09T22:30:03.948Z,21.70
2019-05-09T22:32:38.780Z,22.05
2019-05-09T22:35:14.245Z,20.55
2019-05-09T22:37:50.224Z,21.50
2019-05-09T22:40:25.270Z,20.10
2019-05-09T22:42:59.300Z,23.05
2019-05-09T22:45:31.399Z,20.77
2019-05-09T22:48:01.928Z,19.60
2019-05-09T22:50:32.452Z,21.05
2019-05-09T22:53:04.311Z,18.52
2019-05-09T22:55:37.195Z,19.48
2019-05-09T22:58:09.164Z,19.57
2019-05-09T23:00:46.752Z,21.57
2019-05-09T23:03:18.817Z,23.50
2019-05-09T23:05:54.671Z,22.52
2019-05-09T23:11:15.903Z,26.10
2019-05-09T23:14:05.408Z,27.45
2019-05-09T23:16:40.168Z,26.33
2019-05-09T23:19:11.950Z,30.77
2019-05-09T23:21:42.296Z,25.52
2019-05-09T23:24:28.143Z,28.15
2019-05-09T23:26:50.011Z,27.30
2019-05-09T23:29:20.303Z,33.18
2019-05-09T23:32:23.629Z,29.75
2019-05-09T23:34:54.057Z,30.92
2019-05-09T23:37:24.385Z,33.05
2019-05-09T23:39:56.286Z,35.90
2019-05-09T23:42:29.297Z,34.48
2019-05-09T23:44:59.546Z,35.95
2019-05-09T23:47:29.867Z,39.18
2019-05-09T23:50:00.137Z,34.10
2019-05-09T23:52:30.459Z,35.20
2019-05-09T23:55:18.551Z,36.38
2019-05-09T23:58:07.212Z,37.40
